New Orleans, Louisiana
Traffic Map
Current Weather Conditions
New Orleans, Louisiana
Broken Clouds
Broken Clouds
27°
Feels Like: 29°
Wind Chill: 27° Ceiling: 4500
Heat Index: 29° Visibility: 10mi
Dew Point: 22° Wind: 7mph
Humidity: 74% Direction: 60° (ENE)
Pressure: 29.91in Gusts: 0mph
Raw Report DataKVSH 011835Z AUTO 06006KT 10SM SCT015 BKN045 27/22 A2991 RMK AO1
Traffic Incident Summary
Active as of:
Severity:
Category:
InformationThere was an issue retrieving the traffic information for this location. Please try a different location or try again shortly.
Advertisements
Track Severe Weather on mobile